Time;durP1;ratioP1;P1;durP2;ratioP2;P2;SDS_P1;SDS_P2;PMS_P1;PMS_P2;Temp;Humidity;BMP_temperature;BMP_pressure;BME280_temperature;BME280_humidity;BME280_pressure;Samples;Min_cycle;Max_cycle;Signal;HPM_P1;HPM_P2
2022/08/12 00:43:56;;;;;;;3.20;1.70;;;;;;;12.05;84.82;97176.77;108499;1268;24942;-75
2022/08/12 00:46:38;;;;;;;2.50;1.70;;;;;;;12.15;84.47;97180.77;108413;1268;22462;-76
2022/08/12 00:49:10;;;;;;;2.40;1.40;;;;;;;12.26;83.96;97176.05;108423;1268;31253;-76
2022/08/12 00:54:32;;;;;;;3.80;2.20;;;;;;;12.18;82.81;97177.88;108511;1268;22552;-76
2022/08/12 00:57:05;;;;;;;4.90;3.00;;;;;;;11.92;82.42;97175.45;108503;1267;22554;-75
2022/08/12 00:59:46;;;;;;;3.20;2.10;;;;;;;11.67;83.09;97178.66;108449;1267;31946;-76
2022/08/12 01:02:24;;;;;;;2.10;1.80;;;;;;;11.55;84.32;97182.00;108479;1265;22685;-76
2022/08/12 01:13:28;;;;;;;3.00;2.00;;;;;;;11.79;85.28;97168.95;108509;1268;25360;-76
2022/08/12 01:16:06;;;;;;;3.40;2.40;;;;;;;11.75;84.76;97169.92;108521;1267;22937;-76
2022/08/12 01:18:40;;;;;;;3.80;2.60;;;;;;;11.64;84.67;97164.53;108400;1268;26888;-75
2022/08/12 01:21:19;;;;;;;3.30;2.60;;;;;;;11.55;84.98;97159.36;108484;1267;22596;-75
2022/08/12 01:24:13;;;;;;;4.70;2.00;;;;;;;11.51;84.98;97162.50;108467;1267;22532;-76
2022/08/12 01:26:47;;;;;;;2.90;2.20;;;;;;;11.44;85.16;97161.36;108506;1267;22555;-76
2022/08/12 01:29:24;;;;;;;3.10;2.60;;;;;;;11.42;85.83;97161.95;108315;1267;29433;-75
2022/08/12 01:31:57;;;;;;;4.10;2.30;;;;;;;11.40;86.06;97158.61;108520;1268;22632;-76
2022/08/12 01:34:35;;;;;;;2.20;2.00;;;;;;;11.41;86.55;97158.92;108505;1267;22524;-76
2022/08/12 01:37:08;;;;;;;2.30;2.10;;;;;;;11.46;86.86;97160.29;108478;1267;22535;-76
2022/08/12 01:39:48;;;;;;;3.40;2.40;;;;;;;11.54;87.33;97156.45;108466;1267;23472;-75
2022/08/12 01:42:21;;;;;;;4.70;2.40;;;;;;;11.62;87.50;97154.72;108462;1267;25243;-76
2022/08/12 01:44:54;;;;;;;2.40;2.20;;;;;;;11.65;87.28;97156.30;108471;1267;22749;-76
2022/08/12 01:47:39;;;;;;;2.80;2.40;;;;;;;11.63;86.91;97154.61;108442;1267;22559;-75
2022/08/12 01:50:21;;;;;;;2.30;2.10;;;;;;;11.61;86.60;97154.88;108424;1267;22538;-76
2022/08/12 01:53:04;;;;;;;2.70;2.00;;;;;;;11.48;86.26;97154.59;108509;1268;22525;-76
2022/08/12 01:55:38;;;;;;;2.90;2.30;;;;;;;11.38;86.42;97153.89;108517;1266;22565;-76
2022/08/12 01:59:45;;;;;;;5.60;2.40;;;;;;;11.35;86.70;97153.52;108438;1268;29011;-76
2022/08/12 02:01:29;;;;;;;3.80;2.20;;;;;;;11.39;87.20;97155.42;108497;1267;24271;-76
2022/08/12 02:13:06;;;;;;;2.50;2.30;;;;;;;11.78;87.55;97149.04;108488;1268;22642;-76
2022/08/12 02:15:45;;;;;;;2.50;2.10;;;;;;;11.85;87.16;97144.15;108524;1267;22532;-76
2022/08/12 02:18:25;;;;;;;2.80;2.00;;;;;;;11.94;86.82;97148.30;108418;1267;38643;-76
2022/08/12 02:21:04;;;;;;;2.70;2.40;;;;;;;12.01;86.12;97148.73;108503;1268;22655;-76
2022/08/12 02:23:37;;;;;;;3.40;2.00;;;;;;;11.94;85.80;97145.90;108480;1267;22527;-76
2022/08/12 02:26:14;;;;;;;4.90;2.80;;;;;;;11.78;85.79;97145.58;108494;1266;22659;-76
2022/08/12 02:28:46;;;;;;;3.10;2.20;;;;;;;11.72;86.61;97143.38;108412;1267;41593;-76
2022/08/12 02:31:18;;;;;;;4.50;3.10;;;;;;;11.69;86.88;97139.02;108523;1267;24229;-75
2022/08/12 02:33:50;;;;;;;4.40;3.00;;;;;;;11.71;87.20;97144.02;108503;1267;22557;-76
2022/08/12 02:36:22;;;;;;;4.40;2.70;;;;;;;11.78;87.18;97146.64;108473;1268;22597;-76
2022/08/12 02:38:55;;;;;;;2.70;2.30;;;;;;;11.73;87.00;97148.10;108424;1267;35095;-76
2022/08/12 02:41:30;;;;;;;3.80;2.50;;;;;;;11.64;86.67;97151.10;108506;1267;22584;-76
2022/08/12 02:44:08;;;;;;;3.60;2.40;;;;;;;11.49;86.79;97152.52;108398;1267;25428;-75
2022/08/12 02:46:40;;;;;;;3.20;2.80;;;;;;;11.44;87.33;97154.78;108527;1268;22668;-75
2022/08/12 02:49:17;;;;;;;2.90;2.30;;;;;;;11.51;87.77;97153.48;108416;1268;37692;-75
2022/08/12 02:51:50;;;;;;;3.40;2.60;;;;;;;11.60;87.63;97152.34;108481;1267;22941;-75
2022/08/12 02:54:25;;;;;;;4.80;2.90;;;;;;;11.67;87.32;97154.27;108473;1267;23948;-75
2022/08/12 02:56:56;;;;;;;4.80;2.90;;;;;;;11.72;87.13;97146.66;108518;1267;22635;-76
2022/08/12 02:59:29;;;;;;;3.00;2.70;;;;;;;11.75;86.84;97144.14;108405;1265;30130;-76
2022/08/12 03:02:04;;;;;;;3.60;2.80;;;;;;;11.68;86.67;97139.71;108511;1267;24529;-76
2022/08/12 03:04:40;;;;;;;3.00;2.60;;;;;;;11.64;86.86;97140.31;108512;1268;23756;-75
2022/08/12 03:07:16;;;;;;;2.70;2.20;;;;;;;11.72;86.96;97135.73;108526;1268;22821;-76
2022/08/12 03:09:51;;;;;;;4.50;2.50;;;;;;;11.79;86.94;97128.05;108449;1267;24266;-75
2022/08/12 03:12:24;;;;;;;2.30;2.10;;;;;;;11.87;86.54;97130.42;108484;1267;23238;-75
2022/08/12 03:14:58;;;;;;;3.20;2.30;;;;;;;11.91;85.80;97130.14;108531;1268;22532;-76
2022/08/12 03:17:34;;;;;;;2.90;2.70;;;;;;;11.91;85.29;97126.67;108433;1265;22474;-75
2022/08/12 03:20:06;;;;;;;3.30;2.80;;;;;;;11.77;84.95;97124.55;108395;1268;43755;-75
2022/08/12 03:22:40;;;;;;;3.90;2.80;;;;;;;11.55;85.13;97128.02;108374;1268;23897;-76
2022/08/12 03:25:16;;;;;;;3.50;2.80;;;;;;;11.46;85.88;97131.77;108518;1267;23929;-76
2022/08/12 03:27:54;;;;;;;3.40;2.80;;;;;;;11.47;86.38;97134.91;108408;1267;29363;-75
2022/08/12 03:30:30;;;;;;;3.30;2.70;;;;;;;11.50;87.05;97131.60;108527;1267;24023;-76
2022/08/12 03:33:02;;;;;;;3.60;2.90;;;;;;;11.61;87.20;97131.04;108353;1268;22551;-76
2022/08/12 03:35:36;;;;;;;4.00;3.00;;;;;;;11.70;87.16;97126.92;108526;1267;22552;-76
2022/08/12 03:38:10;;;;;;;2.50;2.30;;;;;;;11.76;87.21;97126.30;108415;1266;28853;-76
2022/08/12 04:00:53;;;;;;;4.50;2.80;;;;;;;11.91;85.91;97122.11;108416;1267;22538;-76
2022/08/12 04:06:13;;;;;;;3.90;3.00;;;;;;;11.88;86.40;97119.95;107666;1267;1150410;-76
2022/08/12 04:08:46;;;;;;;2.90;2.60;;;;;;;11.91;86.81;97124.40;108347;1267;32384;-76
2022/08/12 04:14:11;;;;;;;3.10;2.80;;;;;;;12.08;87.34;97127.70;108498;1268;22543;-75
2022/08/12 04:16:43;;;;;;;3.10;2.80;;;;;;;12.20;87.80;97132.58;108527;1268;22576;-75
2022/08/12 04:19:15;;;;;;;4.40;3.00;;;;;;;12.36;88.00;97141.41;108350;1268;30662;-76
2022/08/12 04:21:47;;;;;;;3.40;3.00;;;;;;;12.57;88.04;97147.55;108502;1268;22464;-76
2022/08/12 04:24:19;;;;;;;3.90;2.70;;;;;;;12.79;87.67;97147.22;108507;1267;24388;-75
2022/08/12 04:26:50;;;;;;;3.20;2.80;;;;;;;13.00;87.52;97149.42;108485;1268;22565;-76
2022/08/12 04:29:25;;;;;;;3.50;2.70;;;;;;;13.17;87.32;97146.56;108361;1267;26332;-75
2022/08/12 04:31:56;;;;;;;3.60;2.90;;;;;;;13.32;87.05;97147.49;108495;1267;22480;-75
2022/08/12 04:34:28;;;;;;;3.50;2.60;;;;;;;13.33;86.69;97148.70;108486;1268;22562;-75
2022/08/12 04:36:59;;;;;;;2.90;2.50;;;;;;;13.56;86.87;97147.77;108470;1268;24186;-75
2022/08/12 04:39:30;;;;;;;3.50;2.50;;;;;;;13.85;86.37;97144.66;108292;1268;57790;-76
2022/08/12 04:42:01;;;;;;;3.20;2.30;;;;;;;14.12;85.79;97142.61;108519;1268;22628;-75
2022/08/12 04:44:33;;;;;;;3.60;2.20;;;;;;;15.37;87.96;97142.37;108501;1268;23241;-76
2022/08/12 04:47:04;;;;;;;2.80;2.50;;;;;;;17.62;88.20;97135.20;108541;1268;22569;-75
2022/08/12 04:49:36;;;;;;;3.20;2.10;;;;;;;19.72;83.73;97133.01;108417;1268;24503;-76
2022/08/12 04:52:07;;;;;;;2.60;2.20;;;;;;;21.40;79.29;97137.08;108490;1268;25979;-76
2022/08/12 04:54:39;;;;;;;3.30;2.10;;;;;;;23.08;76.29;97142.02;108484;1268;23712;-76
2022/08/12 04:57:10;;;;;;;2.80;1.70;;;;;;;24.66;72.31;97145.45;108516;1267;22590;-75
2022/08/12 04:59:41;;;;;;;2.00;1.70;;;;;;;25.82;67.45;97144.96;108429;1267;32089;-76
2022/08/12 05:02:12;;;;;;;3.20;2.00;;;;;;;26.68;64.24;97149.61;108461;1268;24231;-76
2022/08/12 05:04:46;;;;;;;3.00;1.90;;;;;;;27.70;62.09;97149.85;108509;1267;23825;-76
2022/08/12 05:07:17;;;;;;;3.40;2.00;;;;;;;28.75;59.57;97144.30;108519;1268;22551;-76
2022/08/12 05:09:49;;;;;;;2.00;1.70;;;;;;;29.55;56.56;97140.94;108367;1268;24312;-76
2022/08/12 05:12:22;;;;;;;1.90;1.70;;;;;;;30.20;53.90;97144.90;108496;1268;22525;-76
2022/08/12 05:14:53;;;;;;;2.30;1.50;;;;;;;30.76;51.70;97146.87;108520;1268;22562;-76
2022/08/12 05:17:25;;;;;;;1.90;1.40;;;;;;;31.46;49.89;97146.90;108535;1268;22552;-76
2022/08/12 05:19:58;;;;;;;1.60;1.50;;;;;;;31.58;45.98;97150.10;108406;1268;40089;-76
2022/08/12 05:22:31;;;;;;;3.20;1.40;;;;;;;31.34;45.69;97155.60;108443;1267;23170;-76
2022/08/12 05:25:05;;;;;;;2.70;1.30;;;;;;;31.74;44.93;97156.90;108506;1267;25835;-76
2022/08/12 05:27:37;;;;;;;1.60;1.20;;;;;;;32.18;43.85;97158.15;108532;1267;22527;-76
2022/08/12 05:30:11;;;;;;;2.50;1.50;;;;;;;32.37;42.13;97159.26;108532;1268;22645;-76
2022/08/12 05:32:43;;;;;;;2.00;1.60;;;;;;;31.64;39.63;97158.29;108388;1268;22460;-76
2022/08/12 05:35:14;;;;;;;2.60;1.40;;;;;;;31.03;40.41;97159.19;108422;1268;22599;-76
2022/08/12 05:37:46;;;;;;;2.90;1.60;;;;;;;30.74;38.97;97166.50;108463;1267;29255;-76
2022/08/12 05:40:17;;;;;;;2.70;1.70;;;;;;;30.05;39.11;97171.88;108507;1267;22545;-76
2022/08/12 05:42:48;;;;;;;4.60;1.50;;;;;;;29.55;39.21;97175.59;108536;1268;22712;-76
2022/08/12 05:45:19;;;;;;;1.80;1.40;;;;;;;29.35;40.37;97175.16;108521;1267;25298;-76
2022/08/12 05:47:51;;;;;;;1.90;1.70;;;;;;;28.26;39.17;97179.98;108340;1268;30261;-76
2022/08/12 05:50:24;;;;;;;2.50;2.20;;;;;;;26.63;41.43;97178.77;108524;1268;22535;-76
2022/08/12 05:52:56;;;;;;;3.40;3.10;;;;;;;26.41;42.54;97179.17;108490;1268;24225;-76
2022/08/12 05:55:27;;;;;;;3.80;3.40;;;;;;;26.77;42.29;97179.03;108428;1267;22569;-76
2022/08/12 05:58:00;;;;;;;4.10;3.70;;;;;;;26.93;41.19;97181.17;108396;1267;28383;-76
2022/08/12 06:00:34;;;;;;;3.30;3.00;;;;;;;27.29;42.87;97179.10;108455;1267;24097;-76
2022/08/12 06:03:06;;;;;;;3.50;3.00;;;;;;;29.19;43.00;97179.98;108347;1268;22524;-76
2022/08/12 06:05:38;;;;;;;3.00;2.70;;;;;;;30.49;40.17;97173.61;108445;1268;22635;-76
2022/08/12 06:08:10;;;;;;;3.00;2.40;;;;;;;31.12;38.34;97168.92;108287;1268;30537;-76
2022/08/12 06:10:41;;;;;;;2.90;2.50;;;;;;;31.18;37.91;97169.77;108440;1267;24232;-76
2022/08/12 06:13:13;;;;;;;2.60;2.30;;;;;;;31.42;37.34;97173.64;108470;1267;23712;-76
2022/08/12 06:15:45;;;;;;;2.30;2.10;;;;;;;32.03;37.10;97167.21;108449;1268;22597;-76
2022/08/12 06:18:17;;;;;;;3.20;2.50;;;;;;;32.18;36.11;97175.55;108406;1267;25381;-74
2022/08/12 06:20:52;;;;;;;2.60;2.40;;;;;;;32.60;36.48;97175.46;108367;1268;24335;-76
2022/08/12 06:23:28;;;;;;;3.20;2.00;;;;;;;33.87;36.47;97179.25;108483;1268;23883;-77
2022/08/12 06:25:59;;;;;;;2.60;2.30;;;;;;;34.94;34.76;97176.57;108478;1267;23328;-77
2022/08/12 06:28:32;;;;;;;2.00;1.90;;;;;;;35.42;33.90;97177.59;108264;1268;31358;-76
2022/08/12 06:31:05;;;;;;;3.10;1.90;;;;;;;36.33;33.35;97175.71;108492;1268;25982;-77
2022/08/12 06:33:36;;;;;;;3.30;1.80;;;;;;;36.98;32.67;97173.86;108384;1268;22652;-77
2022/08/12 06:36:10;;;;;;;3.00;2.20;;;;;;;37.58;31.43;97173.34;108426;1268;22637;-77
2022/08/12 06:38:43;;;;;;;2.80;2.00;;;;;;;37.95;31.24;97174.21;108377;1267;37473;-77
2022/08/12 06:44:05;;;;;;;3.30;2.10;;;;;;;39.51;29.76;97169.91;108470;1267;25367;-77
2022/08/12 06:46:38;;;;;;;2.50;1.90;;;;;;;38.91;26.76;97171.63;108451;1267;22534;-77
2022/08/12 06:49:12;;;;;;;2.90;2.00;;;;;;;37.29;28.03;97166.64;108372;1267;30996;-77
2022/08/12 06:51:47;;;;;;;2.10;1.90;;;;;;;36.71;27.69;97160.95;108427;1268;25949;-77
2022/08/12 06:54:19;;;;;;;3.80;1.80;;;;;;;35.66;29.12;97167.98;108554;1268;25438;-77
2022/08/12 06:56:57;;;;;;;3.20;2.20;;;;;;;36.64;29.66;97169.92;108469;1267;24203;-77
2022/08/12 06:59:34;;;;;;;2.30;2.10;;;;;;;36.69;27.30;97170.32;108381;1267;24900;-77
2022/08/12 07:02:07;;;;;;;2.50;2.20;;;;;;;35.99;28.78;97175.96;108560;1267;22521;-77
2022/08/12 07:04:40;;;;;;;2.30;2.10;;;;;;;35.91;29.05;97174.98;108566;1267;22523;-77
2022/08/12 07:07:13;;;;;;;2.70;2.10;;;;;;;36.39;29.67;97174.23;108545;1266;25258;-77
2022/08/12 07:09:44;;;;;;;4.20;2.40;;;;;;;37.66;29.45;97175.60;108500;1267;24522;-77
2022/08/12 07:12:18;;;;;;;2.20;2.00;;;;;;;39.01;28.74;97176.99;108475;1267;22549;-77
2022/08/12 07:14:53;;;;;;;4.00;1.90;;;;;;;40.27;27.63;97181.55;108430;1267;23693;-77
2022/08/12 07:17:34;;;;;;;2.10;1.80;;;;;;;41.22;26.31;97180.52;108517;1268;23850;-77
2022/08/12 07:20:10;;;;;;;2.20;2.00;;;;;;;41.61;26.24;97180.95;108481;1267;28280;-77
2022/08/12 07:22:42;;;;;;;2.90;2.30;;;;;;;42.44;25.77;97181.75;108543;1267;23889;-77
2022/08/12 07:25:33;;;;;;;2.10;1.80;;;;;;;42.54;23.91;97177.06;108574;1267;22558;-77
2022/08/12 07:28:08;;;;;;;2.20;2.00;;;;;;;42.17;24.47;97180.39;108424;1268;43302;-77
2022/08/12 07:30:43;;;;;;;2.70;2.00;;;;;;;42.59;24.26;97172.81;108519;1268;22519;-75
2022/08/12 07:33:16;;;;;;;5.20;2.00;;;;;;;43.13;23.95;97175.28;108498;1267;24216;-75
2022/08/12 07:35:48;;;;;;;2.90;1.60;;;;;;;43.74;23.69;97170.35;108428;1268;22760;-75
2022/08/12 07:38:41;;;;;;;2.50;1.60;;;;;;;44.55;23.26;97165.55;108474;1267;23931;-76
2022/08/12 07:41:16;;;;;;;2.00;1.70;;;;;;;45.05;21.90;97161.31;108554;1267;22473;-76
2022/08/12 07:43:53;;;;;;;1.60;1.50;;;;;;;43.44;20.72;97157.27;108342;1270;23440;-76
2022/08/12 07:46:29;;;;;;;2.30;1.50;;;;;;;41.73;22.73;97149.65;108563;1268;22542;-76
2022/08/12 07:49:05;;;;;;;2.20;1.90;;;;;;;42.65;23.38;97145.55;108453;1267;34073;-76
2022/08/12 07:51:37;;;;;;;2.20;1.50;;;;;;;43.90;22.51;97138.92;108523;1267;22624;-76
2022/08/12 07:54:11;;;;;;;2.00;1.70;;;;;;;44.56;21.41;97144.45;108530;1267;22542;-76
2022/08/12 07:56:43;;;;;;;1.80;1.60;;;;;;;43.83;21.62;97144.64;108554;1267;22798;-76
2022/08/12 07:59:15;;;;;;;1.80;1.70;;;;;;;44.24;21.39;97143.27;108364;1267;30095;-76
2022/08/12 08:01:48;;;;;;;2.20;1.70;;;;;;;43.86;21.09;97140.56;108536;1267;22535;-76
2022/08/12 08:07:13;;;;;;;3.80;1.60;;;;;;;42.23;21.81;97152.95;108549;1268;23844;-76
2022/08/12 08:09:45;;;;;;;1.40;1.30;;;;;;;42.44;21.19;97159.29;108461;1267;33195;-76
2022/08/12 08:15:08;;;;;;;1.60;1.50;;;;;;;38.03;24.33;97156.17;108467;1267;22516;-77
2022/08/12 08:17:40;;;;;;;2.20;2.00;;;;;;;38.73;24.59;97153.10;108529;1267;25289;-77
2022/08/12 08:20:17;;;;;;;3.20;2.00;;;;;;;37.77;24.39;97154.02;108523;1268;22542;-77
2022/08/12 08:22:49;;;;;;;2.10;1.80;;;;;;;36.09;26.72;97150.48;108552;1267;23730;-77
2022/08/12 08:25:21;;;;;;;2.60;1.90;;;;;;;36.07;27.26;97148.79;108531;1267;22647;-77
2022/08/12 08:27:53;;;;;;;5.60;2.20;;;;;;;35.57;27.50;97150.08;108437;1268;33494;-77
2022/08/12 08:30:24;;;;;;;3.50;2.10;;;;;;;35.23;28.10;97146.81;108459;1267;22529;-77
2022/08/12 08:32:57;;;;;;;3.70;2.20;;;;;;;36.55;28.71;97146.24;108513;1268;22657;-77
2022/08/12 08:35:29;;;;;;;2.90;2.10;;;;;;;38.15;26.84;97151.82;108494;1268;22617;-77
2022/08/12 08:38:14;;;;;;;2.20;2.00;;;;;;;37.95;26.69;97147.88;108401;1267;25296;-77
2022/08/12 08:43:36;;;;;;;3.00;1.90;;;;;;;39.79;25.88;97143.47;108521;1268;22535;-77
2022/08/12 08:46:12;;;;;;;2.50;1.70;;;;;;;41.13;25.19;97142.75;108569;1268;22549;-77
2022/08/12 08:48:44;;;;;;;3.50;1.80;;;;;;;42.27;24.29;97141.88;108435;1267;35574;-77
2022/08/12 08:51:16;;;;;;;2.20;1.90;;;;;;;42.76;22.91;97139.73;108565;1268;22598;-77
2022/08/12 08:53:48;;;;;;;1.80;1.70;;;;;;;43.12;22.97;97139.63;108419;1268;22646;-77
2022/08/12 08:56:20;;;;;;;2.70;1.80;;;;;;;43.13;22.42;97140.98;108549;1268;23903;-77
2022/08/12 08:58:51;;;;;;;2.50;1.80;;;;;;;43.19;22.16;97141.73;108464;1268;22812;-77
2022/08/12 09:01:22;;;;;;;1.90;1.60;;;;;;;43.08;22.44;97142.56;108444;1268;24004;-77
2022/08/12 09:03:55;;;;;;;3.60;2.20;;;;;;;42.57;20.57;97139.02;108517;1268;22521;-77
2022/08/12 09:06:29;;;;;;;4.10;2.10;;;;;;;40.72;23.47;97138.33;108494;1268;22517;-76
2022/08/12 09:09:04;;;;;;;3.50;1.80;;;;;;;40.11;23.36;97137.64;108430;1268;36365;-76
2022/08/12 09:14:28;;;;;;;3.10;1.90;;;;;;;39.93;23.91;97142.96;108422;1267;24995;-77
2022/08/12 09:16:59;;;;;;;2.50;2.20;;;;;;;38.08;25.10;97149.56;108511;1268;22558;-76
2022/08/12 09:19:31;;;;;;;2.30;1.70;;;;;;;37.52;26.94;97148.30;108434;1268;23417;-77
2022/08/12 09:22:03;;;;;;;2.90;1.90;;;;;;;37.95;26.51;97144.81;108462;1268;22612;-76
2022/08/12 09:24:35;;;;;;;3.20;2.20;;;;;;;37.38;27.03;97148.48;108501;1267;22546;-76
2022/08/12 09:27:07;;;;;;;4.30;2.10;;;;;;;36.73;27.76;97150.11;108502;1268;22536;-76
2022/08/12 09:29:38;;;;;;;2.90;2.50;;;;;;;35.31;28.46;97155.13;108435;1268;29212;-76
2022/08/12 09:32:10;;;;;;;3.10;1.80;;;;;;;32.78;30.10;97159.14;108371;1268;22590;-76
2022/08/12 09:34:42;;;;;;;2.10;1.90;;;;;;;30.57;33.42;97159.20;108471;1268;22526;-76
2022/08/12 09:37:13;;;;;;;3.70;2.10;;;;;;;29.79;35.45;97161.40;108507;1268;23326;-76
2022/08/12 09:39:44;;;;;;;2.70;2.10;;;;;;;29.63;36.00;97157.89;108444;1268;28930;-76
2022/08/12 09:45:21;;;;;;;2.70;2.10;;;;;;;29.30;36.72;97156.11;108470;1268;22552;-76
2022/08/12 09:47:53;;;;;;;5.50;2.50;;;;;;;28.64;37.44;97158.52;108437;1268;27737;-76
2022/08/12 09:50:25;;;;;;;3.20;2.30;;;;;;;28.00;38.61;97159.44;108500;1267;25366;-76
2022/08/12 09:53:09;;;;;;;3.00;2.70;;;;;;;27.25;39.86;97154.48;108508;1268;22791;-76
2022/08/12 09:55:46;;;;;;;3.30;2.90;;;;;;;26.74;41.26;97148.00;108507;1268;23586;-76
2022/08/12 09:58:27;;;;;;;2.90;2.20;;;;;;;26.60;42.18;97143.86;108467;1267;31388;-76
2022/08/12 10:01:00;;;;;;;;;;;;;;;26.91;43.01;97138.62;108532;1268;22504;-76
2022/08/12 10:03:32;;;;;;;2.60;2.30;;;;;;;27.01;42.35;97141.08;108526;1268;22620;-76
2022/08/12 10:06:06;;;;;;;3.40;2.80;;;;;;;26.65;42.66;97142.52;108500;1268;22662;-76
2022/08/12 10:08:39;;;;;;;2.80;2.60;;;;;;;26.28;43.33;97140.45;108440;1268;28874;-76
2022/08/12 10:13:59;;;;;;;4.60;3.00;;;;;;;26.63;43.22;97140.71;108511;1268;24158;-76
2022/08/12 10:16:31;;;;;;;2.90;2.70;;;;;;;26.58;43.62;97137.60;108451;1268;23792;-76
2022/08/12 10:19:04;;;;;;;3.40;3.00;;;;;;;26.68;44.33;97135.88;108469;1267;26204;-76
2022/08/12 10:21:42;;;;;;;2.50;2.30;;;;;;;26.82;44.44;97126.94;108554;1268;22653;-76
2022/08/12 10:24:17;;;;;;;3.00;2.70;;;;;;;27.00;44.11;97120.48;108507;1268;22527;-76
2022/08/12 10:29:43;;;;;;;3.50;3.10;;;;;;;27.44;43.70;97114.52;108470;1268;30679;-76
2022/08/12 10:32:20;;;;;;;2.90;2.70;;;;;;;27.46;43.77;97116.17;108476;1268;22490;-76
2022/08/12 10:34:51;;;;;;;3.90;2.80;;;;;;;27.18;42.79;97114.27;108508;1268;22536;-76
2022/08/12 10:37:22;;;;;;;4.20;2.90;;;;;;;26.40;43.48;97112.48;108501;1265;22539;-76
2022/08/12 10:39:54;;;;;;;4.30;2.70;;;;;;;25.92;44.87;97118.38;108443;1268;28886;-76
2022/08/12 10:45:17;;;;;;;3.90;3.00;;;;;;;26.00;46.18;97107.92;108492;1268;22516;-76
2022/08/12 10:47:52;;;;;;;3.70;2.80;;;;;;;26.09;45.79;97108.73;108460;1268;35794;-76
2022/08/12 10:50:24;;;;;;;3.90;3.10;;;;;;;25.76;45.76;97117.95;108515;1268;23853;-76
2022/08/12 10:52:55;;;;;;;3.30;3.00;;;;;;;25.59;46.37;97109.29;108421;1268;22547;-76
2022/08/12 10:55:27;;;;;;;3.30;3.00;;;;;;;25.74;46.72;97115.14;108472;1267;23106;-76
2022/08/12 10:57:58;;;;;;;3.90;3.10;;;;;;;25.63;47.17;97115.95;108429;1268;29015;-76
2022/08/12 11:00:33;;;;;;;3.80;2.90;;;;;;;25.73;47.02;97108.67;108499;1268;24230;-76
2022/08/12 11:03:08;;;;;;;3.90;2.50;;;;;;;25.85;47.16;97107.07;108497;1268;23866;-76
2022/08/12 11:05:39;;;;;;;4.70;3.00;;;;;;;25.78;46.41;97108.90;108493;1268;22554;-76
2022/08/12 11:08:11;;;;;;;4.40;3.40;;;;;;;25.73;47.42;97104.65;108367;1268;27494;-76
2022/08/12 11:10:43;;;;;;;3.30;3.00;;;;;;;25.93;48.16;97097.25;108431;1268;22692;-76
2022/08/12 11:13:15;;;;;;;3.90;3.00;;;;;;;26.06;47.52;97097.67;108410;1268;22476;-76
2022/08/12 11:15:47;;;;;;;2.50;2.30;;;;;;;25.80;46.09;97101.73;108495;1268;22538;-76
2022/08/12 11:18:20;;;;;;;2.90;2.70;;;;;;;25.70;46.80;97103.34;108396;1268;39775;-76
2022/08/12 11:20:53;;;;;;;3.30;2.80;;;;;;;25.81;46.54;97098.23;108497;1268;22545;-77
2022/08/12 11:23:24;;;;;;;3.40;2.80;;;;;;;25.28;46.75;97098.52;108479;1267;22657;-77
2022/08/12 11:25:58;;;;;;;3.90;2.80;;;;;;;24.77;48.47;97092.24;108507;1267;22560;-76
2022/08/12 11:28:29;;;;;;;3.00;2.70;;;;;;;24.76;48.08;97093.62;108465;1265;28004;-76
2022/08/12 11:31:03;;;;;;;3.70;2.90;;;;;;;24.82;48.23;97095.29;108489;1268;22552;-77
2022/08/12 11:33:35;;;;;;;2.90;2.70;;;;;;;24.72;48.59;97096.31;108486;1268;25357;-77
2022/08/12 11:36:10;;;;;;;5.00;3.10;;;;;;;24.85;49.18;97095.58;108517;1268;22520;-77
2022/08/12 11:38:41;;;;;;;2.90;2.70;;;;;;;24.79;48.49;97096.47;108429;1268;25846;-77
2022/08/12 11:41:13;;;;;;;3.60;2.80;;;;;;;24.56;48.95;97096.02;108500;1268;22587;-77
2022/08/12 11:43:44;;;;;;;2.80;2.50;;;;;;;24.72;49.16;97087.96;108433;1268;22535;-78
2022/08/12 11:46:18;;;;;;;4.10;2.70;;;;;;;24.44;48.38;97092.05;108436;1267;22527;-77
2022/08/12 11:48:49;;;;;;;2.60;2.40;;;;;;;24.00;48.97;97092.50;108290;1271;25772;-77
2022/08/12 11:51:20;;;;;;;3.30;3.00;;;;;;;24.06;49.60;97091.85;108436;1268;23346;-77
2022/08/12 11:53:52;;;;;;;3.50;2.80;;;;;;;24.38;49.84;97091.31;108510;1268;22522;-78
2022/08/12 11:56:23;;;;;;;2.70;2.50;;;;;;;24.51;49.51;97087.31;108430;1268;22581;-77
2022/08/12 11:58:54;;;;;;;2.80;2.40;;;;;;;24.46;49.57;97090.32;108299;1268;31083;-77
2022/08/12 12:01:26;;;;;;;3.40;2.70;;;;;;;24.47;49.19;97090.34;108449;1267;22534;-77
2022/08/12 12:03:58;;;;;;;4.20;2.90;;;;;;;24.31;50.47;97087.27;108458;1268;23145;-77
2022/08/12 12:06:30;;;;;;;3.90;3.10;;;;;;;24.48;50.19;97087.64;108484;1268;22587;-78
2022/08/12 12:09:01;;;;;;;3.70;2.90;;;;;;;24.40;51.00;97088.48;108367;1267;25991;-77
2022/08/12 12:11:32;;;;;;;3.40;3.00;;;;;;;24.62;50.70;97092.66;108510;1267;22518;-77
2022/08/12 12:14:04;;;;;;;3.10;2.80;;;;;;;24.71;50.55;97093.52;108490;1268;22552;-77
2022/08/12 12:16:35;;;;;;;3.40;3.10;;;;;;;24.80;50.57;97087.97;108451;1267;22684;-77
2022/08/12 12:19:07;;;;;;;6.20;3.20;;;;;;;24.86;50.39;97084.04;108366;1267;27112;-77
2022/08/12 12:21:38;;;;;;;3.20;2.80;;;;;;;24.80;49.77;97086.81;108487;1267;24183;-77
2022/08/12 12:24:09;;;;;;;3.00;2.70;;;;;;;24.84;49.60;97079.91;108418;1267;22570;-78
2022/08/12 12:26:41;;;;;;;2.90;2.60;;;;;;;24.48;48.83;97078.13;108505;1268;23820;-78
2022/08/12 12:29:12;;;;;;;3.30;2.80;;;;;;;24.36;49.90;97076.65;108265;1268;45083;-77
2022/08/12 12:31:45;;;;;;;3.20;2.90;;;;;;;24.58;50.95;97068.33;108501;1268;23882;-77
2022/08/12 12:34:17;;;;;;;3.20;2.90;;;;;;;24.95;50.42;97065.45;108411;1268;22560;-77
2022/08/12 12:36:49;;;;;;;3.20;2.90;;;;;;;25.01;50.27;97066.73;108370;1271;22542;-77
2022/08/12 12:39:20;;;;;;;3.30;3.00;;;;;;;25.29;50.28;97067.69;108351;1268;29416;-77
2022/08/12 12:41:52;;;;;;;3.70;3.30;;;;;;;25.19;48.99;97064.58;108501;1268;22542;-77
2022/08/12 12:44:25;;;;;;;3.20;2.90;;;;;;;25.08;49.81;97067.09;108479;1268;22555;-77
2022/08/12 12:46:56;;;;;;;3.70;2.90;;;;;;;25.27;49.89;97063.23;108497;1268;22703;-77
2022/08/12 12:49:30;;;;;;;3.40;2.80;;;;;;;25.44;49.85;97060.08;108323;1268;37798;-77
2022/08/12 12:52:02;;;;;;;3.90;2.90;;;;;;;25.52;50.01;97057.20;108464;1268;25375;-77
2022/08/12 12:54:34;;;;;;;3.00;2.70;;;;;;;25.59;49.72;97056.52;108409;1268;22670;-77
2022/08/12 12:57:07;;;;;;;3.30;2.90;;;;;;;25.60;49.70;97052.20;108544;1267;22680;-77
2022/08/12 13:00:13;;;;;;;3.50;3.10;;;;;;;25.56;49.19;97061.67;108433;1267;29506;-77
2022/08/12 13:02:39;;;;;;;4.10;3.10;;;;;;;25.19;48.96;97059.14;108492;1268;22566;-77
2022/08/12 13:05:13;;;;;;;3.90;3.40;;;;;;;24.88;50.05;97054.92;108452;1268;25363;-78
2022/08/12 13:07:45;;;;;;;3.10;2.80;;;;;;;24.95;49.90;97052.98;108510;1268;28094;-78
2022/08/12 13:10:17;;;;;;;3.70;3.10;;;;;;;24.65;49.70;97049.79;108366;1268;25241;-78
2022/08/12 13:12:51;;;;;;;3.60;3.30;;;;;;;24.46;50.76;97045.71;108503;1268;22596;-77
2022/08/12 13:15:23;;;;;;;3.60;3.20;;;;;;;24.57;50.84;97042.82;108487;1268;22552;-78
2022/08/12 13:18:03;;;;;;;4.30;3.90;;;;;;;24.52;50.71;97041.36;108418;1266;29723;-77
2022/08/12 13:20:34;;;;;;;2.70;2.50;;;;;;;24.63;51.12;97034.79;108497;1268;23863;-77
2022/08/12 13:23:07;;;;;;;3.10;2.80;;;;;;;24.78;50.68;97034.70;108462;1268;24223;-77
2022/08/12 13:25:40;;;;;;;3.50;3.20;;;;;;;24.79;50.19;97032.86;108508;1268;22520;-78
2022/08/12 13:28:21;;;;;;;3.40;3.10;;;;;;;24.89;50.31;97030.52;108453;1268;25266;-79
2022/08/12 13:30:56;;;;;;;3.20;2.90;;;;;;;24.56;49.10;97031.96;108512;1268;22690;-78
2022/08/12 13:33:28;;;;;;;3.20;2.90;;;;;;;24.19;50.08;97028.10;108554;1268;22555;-78
2022/08/12 13:36:02;;;;;;;3.30;2.90;;;;;;;24.18;49.94;97030.25;108535;1268;22937;-78
2022/08/12 13:38:38;;;;;;;3.90;3.40;;;;;;;24.20;50.40;97024.17;108315;1268;24648;-78
2022/08/12 13:41:31;;;;;;;3.90;3.00;;;;;;;24.30;50.40;97019.44;108519;1268;23253;-78
2022/08/12 13:44:04;;;;;;;3.40;3.10;;;;;;;24.26;50.09;97020.75;108496;1268;24335;-78
2022/08/12 13:46:36;;;;;;;3.30;3.00;;;;;;;24.23;50.60;97017.29;108358;1268;22702;-77
2022/08/12 13:49:14;;;;;;;3.60;3.30;;;;;;;24.33;50.59;97014.46;108446;1268;30499;-77